createdAt,value
2019-04-26T00:01:02.602Z,100248.28
2019-04-26T00:03:41.555Z,100246.16
2019-04-26T00:06:10.753Z,100238.49
2019-04-26T00:08:39.935Z,100244.09
2019-04-26T00:11:16.311Z,100237.20
2019-04-26T00:14:02.201Z,100238.08
2019-04-26T00:16:44.574Z,100235.09
2019-04-26T00:19:13.834Z,100223.94
2019-04-26T00:21:42.543Z,100229.96
2019-04-26T00:24:11.770Z,100232.06
2019-04-26T00:26:40.277Z,100239.38
2019-04-26T00:29:08.665Z,100252.66
2019-04-26T00:31:37.093Z,100256.89
2019-04-26T00:34:05.573Z,100254.31
2019-04-26T00:36:33.980Z,100253.46
2019-04-26T00:39:02.362Z,100271.01
2019-04-26T00:41:30.924Z,100276.16
2019-04-26T00:43:59.417Z,100274.83
2019-04-26T00:46:31.157Z,100271.83
2019-04-26T00:49:02.632Z,100274.80
2019-04-26T00:51:31.852Z,100277.78
2019-04-26T00:54:00.871Z,100275.65
2019-04-26T00:56:29.693Z,100272.63
2019-04-26T00:58:58.337Z,100261.50
2019-04-26T01:01:28.463Z,100263.66
2019-04-26T01:03:56.946Z,100273.97
2019-04-26T01:06:26.993Z,100282.56
2019-04-26T01:08:55.399Z,100281.27
2019-04-26T01:11:23.926Z,100277.83
2019-04-26T01:13:52.295Z,100286.39
2019-04-26T01:16:20.858Z,100288.09
2019-04-26T01:18:50.319Z,100302.17
2019-04-26T01:21:22.661Z,100297.05
2019-04-26T01:23:53.937Z,100304.76
2019-04-26T01:26:28.216Z,100304.78
2019-04-26T01:29:05.629Z,100315.90
2019-04-26T01:31:39.892Z,100313.36
2019-04-26T01:34:08.363Z,100316.78
2019-04-26T01:36:42.228Z,100325.31
2019-04-26T01:39:12.328Z,100330.02
2019-04-26T01:41:45.343Z,100323.22
2019-04-26T01:44:31.993Z,100321.06
2019-04-26T01:47:00.579Z,100319.34
2019-04-26T01:49:29.154Z,100332.16
2019-04-26T01:52:11.343Z,100333.44
2019-04-26T01:54:42.929Z,100331.30
2019-04-26T01:57:14.510Z,100341.57
2019-04-26T01:59:46.853Z,100336.02
2019-04-26T02:02:32.079Z,100328.33
2019-04-26T02:05:13.969Z,100327.45
2019-04-26T02:07:42.832Z,100326.59
2019-04-26T02:10:16.901Z,100347.98
2019-04-26T02:12:48.607Z,100340.29
2019-04-26T02:15:20.267Z,100347.14
2019-04-26T02:17:50.682Z,100350.58
2019-04-26T02:20:41.722Z,100343.30
2019-04-26T02:23:30.370Z,100336.88
2019-04-26T02:26:00.490Z,100312.50
2019-04-26T02:28:30.429Z,100310.80
2019-04-26T02:30:59.200Z,100330.50
2019-04-26T02:33:29.688Z,100345.87
2019-04-26T02:35:58.101Z,100348.44
2019-04-26T02:38:27.918Z,100335.59
2019-04-26T02:40:59.081Z,100331.77
2019-04-26T02:43:30.238Z,100340.73
2019-04-26T02:46:10.100Z,100348.86
2019-04-26T02:49:01.240Z,100365.11
2019-04-26T02:51:36.438Z,100362.96
2019-04-26T02:54:29.708Z,100361.24
2019-04-26T02:57:00.289Z,100358.25
2019-04-26T02:59:33.781Z,100355.27
2019-04-26T03:02:06.906Z,100367.66
2019-04-26T03:04:39.467Z,100361.25
2019-04-26T03:07:11.085Z,100362.54
2019-04-26T03:09:43.219Z,100368.95
2019-04-26T03:12:18.023Z,100377.08
2019-04-26T03:14:53.718Z,100370.20
2019-04-26T03:17:43.124Z,100367.23
2019-04-26T03:20:21.337Z,100366.39
2019-04-26T03:22:52.800Z,100381.34
2019-04-26T03:25:26.950Z,100382.63
2019-04-26T03:28:13.352Z,100382.20
2019-04-26T03:30:52.672Z,100383.03
2019-04-26T03:33:42.046Z,100380.47
2019-04-26T03:36:19.867Z,100359.96
2019-04-26T03:38:58.540Z,100348.00
2019-04-26T03:41:42.535Z,100341.16
2019-04-26T03:44:19.889Z,100356.97
2019-04-26T03:46:54.345Z,100380.01
2019-04-26T03:49:44.190Z,100403.08
2019-04-26T03:52:20.686Z,100392.83
2019-04-26T03:54:58.239Z,100388.98
2019-04-26T03:57:36.231Z,100389.83
2019-04-26T04:00:11.511Z,100383.00
2019-04-26T04:02:47.227Z,100378.73
2019-04-26T04:05:20.342Z,100386.02
2019-04-26T04:07:51.601Z,100385.59
2019-04-26T04:10:30.294Z,100382.61
2019-04-26T04:13:23.045Z,100388.16
2019-04-26T04:15:53.348Z,100393.25
2019-04-26T04:18:32.170Z,100384.28
2019-04-26T04:21:22.893Z,100383.46
2019-04-26T04:23:57.199Z,100379.19
2019-04-26T04:26:34.479Z,100387.30
2019-04-26T04:29:42.602Z,100388.59
2019-04-26T04:32:23.061Z,100388.19
2019-04-26T04:34:54.518Z,100401.00
2019-04-26T04:37:25.995Z,100395.88
2019-04-26T04:40:18.864Z,100393.74
2019-04-26T04:43:04.392Z,100385.62
2019-04-26T04:46:12.071Z,100395.02
2019-04-26T04:48:59.635Z,100392.03
2019-04-26T04:51:46.855Z,100398.87
2019-04-26T04:54:24.893Z,100392.89
2019-04-26T04:57:02.313Z,100409.13
2019-04-26T04:59:52.369Z,100406.96
2019-04-26T05:02:43.825Z,100415.94
2019-04-26T05:05:51.085Z,100412.52
2019-04-26T05:08:41.007Z,100400.13
2019-04-26T05:11:21.021Z,100387.30
2019-04-26T05:13:55.292Z,100404.39
2019-04-26T05:17:00.037Z,100418.50
2019-04-26T05:19:54.868Z,100430.47
2019-04-26T05:22:35.196Z,100431.75
2019-04-26T05:25:40.329Z,100434.73
2019-04-26T05:28:13.635Z,100447.55
2019-04-26T05:31:07.406Z,100438.16
2019-04-26T05:33:44.497Z,100436.02
2019-04-26T05:36:30.957Z,100453.97
2019-04-26T05:39:02.407Z,100459.09
2019-04-26T05:41:55.686Z,100459.09
2019-04-26T05:44:31.518Z,100455.67
2019-04-26T05:47:25.407Z,100462.98
2019-04-26T05:50:25.398Z,100465.08
2019-04-26T05:53:31.202Z,100458.28
2019-04-26T05:56:34.821Z,100451.87
2019-04-26T05:59:24.187Z,100459.56
2019-04-26T06:02:35.143Z,100458.28
2019-04-26T06:05:22.274Z,100455.72
2019-04-26T06:08:31.771Z,100458.28
2019-04-26T06:11:07.510Z,100465.12
2019-04-26T06:14:02.017Z,100462.55
2019-04-26T06:16:43.338Z,100458.28
2019-04-26T06:19:24.993Z,100460.84
2019-04-26T06:22:08.221Z,100470.67
2019-04-26T06:24:56.511Z,100475.38
2019-04-26T06:27:41.704Z,100468.97
2019-04-26T06:30:16.477Z,100462.12
2019-04-26T06:33:21.048Z,100474.52
2019-04-26T06:35:54.718Z,100482.22
2019-04-26T06:38:43.989Z,100485.21
2019-04-26T06:41:22.332Z,100489.05
2019-04-26T06:44:04.764Z,100486.92
2019-04-26T06:47:05.127Z,100503.59
2019-04-26T06:50:03.696Z,100524.58
2019-04-26T06:52:35.098Z,100541.64
2019-04-26T06:55:08.202Z,100539.11
2019-04-26T06:58:02.994Z,100537.36
2019-04-26T07:01:05.892Z,100527.52
2019-04-26T07:03:49.196Z,100531.72
2019-04-26T07:06:20.670Z,100529.97
2019-04-26T07:09:11.678Z,100540.66
2019-04-26T07:12:31.726Z,100542.41
2019-04-26T07:15:28.354Z,100539.80
2019-04-26T07:18:04.420Z,100541.47
2019-04-26T07:20:40.614Z,100540.14
2019-04-26T07:23:37.928Z,100541.00
2019-04-26T07:26:34.960Z,100541.00
2019-04-26T07:29:14.024Z,100532.02
2019-04-26T07:31:54.303Z,100528.16
2019-04-26T07:34:48.536Z,100533.73
2019-04-26T07:37:32.185Z,100532.84
2019-04-26T07:40:11.522Z,100544.41
2019-04-26T07:43:08.895Z,100551.30
2019-04-26T07:45:53.473Z,100561.55
2019-04-26T07:48:41.335Z,100574.41
2019-04-26T07:51:18.811Z,100581.66
2019-04-26T07:54:09.745Z,100583.42
2019-04-26T07:56:56.099Z,100588.48
2019-04-26T07:59:59.534Z,100588.05
2019-04-26T08:02:47.047Z,100594.05
2019-04-26T08:05:28.867Z,100588.91
2019-04-26T08:08:00.585Z,100583.36
2019-04-26T08:10:32.401Z,100589.41
2019-04-26T08:13:10.108Z,100586.44
2019-04-26T08:15:55.051Z,100579.19
2019-04-26T08:18:28.151Z,100576.67
2019-04-26T08:21:13.617Z,100589.93
2019-04-26T08:23:44.063Z,100587.78
2019-04-26T08:26:15.537Z,100596.83
2019-04-26T08:28:46.196Z,100601.53
2019-04-26T08:31:21.230Z,100606.23
2019-04-26T08:33:55.110Z,100605.39
2019-04-26T08:36:27.040Z,100610.52
2019-04-26T08:38:58.403Z,100604.97
2019-04-26T08:41:27.423Z,100605.39
2019-04-26T08:44:17.224Z,100604.11
2019-04-26T08:47:05.999Z,100610.94
2019-04-26T08:49:52.513Z,100616.87
2019-04-26T08:52:23.321Z,100627.61
2019-04-26T08:54:55.508Z,100631.84
2019-04-26T08:57:26.911Z,100631.02
2019-04-26T08:59:58.295Z,100631.45
2019-04-26T09:02:31.207Z,100631.05
2019-04-26T09:05:04.360Z,100624.64
2019-04-26T09:07:36.437Z,100630.67
2019-04-26T09:10:11.229Z,100625.93
2019-04-26T09:12:41.021Z,100629.82
2019-04-26T09:15:13.966Z,100626.77
2019-04-26T09:17:42.453Z,100628.48
2019-04-26T09:20:11.192Z,100625.05
2019-04-26T09:22:41.258Z,100633.61
2019-04-26T09:25:17.793Z,100631.95
2019-04-26T09:27:50.629Z,100631.97
2019-04-26T09:30:33.370Z,100632.91
2019-04-26T09:32:53.135Z,100628.59
2019-04-26T09:35:21.520Z,100630.30
2019-04-26T09:37:49.931Z,100623.41
2019-04-26T09:40:21.550Z,100631.11
2019-04-26T09:42:50.350Z,100634.53
2019-04-26T09:45:32.745Z,100636.67
2019-04-26T09:48:02.798Z,100637.61
2019-04-26T09:50:32.912Z,100639.24
2019-04-26T09:53:01.327Z,100646.52
2019-04-26T09:55:35.486Z,100651.30
2019-04-26T09:57:59.937Z,100661.14
2019-04-26T10:00:30.281Z,100653.02
2019-04-26T10:02:58.843Z,100653.45
2019-04-26T10:05:27.307Z,100650.03
2019-04-26T10:07:55.772Z,100659.48
2019-04-26T10:10:26.177Z,100662.52
2019-04-26T10:13:14.922Z,100667.23
2019-04-26T10:15:58.101Z,100662.09
2019-04-26T10:18:26.294Z,100665.09
2019-04-26T10:20:54.698Z,100662.12
2019-04-26T10:23:23.167Z,100659.12
2019-04-26T10:25:53.443Z,100654.42
2019-04-26T10:28:21.932Z,100668.12
2019-04-26T10:30:50.737Z,100671.08
2019-04-26T10:33:19.225Z,100673.69
2019-04-26T10:35:47.657Z,100670.69
2019-04-26T10:38:19.435Z,100661.27
2019-04-26T10:40:46.284Z,100671.57
2019-04-26T10:43:14.785Z,100671.97
2019-04-26T10:45:45.915Z,100673.25
2019-04-26T10:48:13.974Z,100672.39
2019-04-26T10:50:43.804Z,100664.27
2019-04-26T10:53:16.565Z,100668.12
2019-04-26T10:55:50.266Z,100663.41
2019-04-26T10:58:24.939Z,100668.14
2019-04-26T11:01:01.034Z,100658.71
2019-04-26T11:03:29.501Z,100661.30
2019-04-26T11:05:57.970Z,100656.58
2019-04-26T11:08:26.680Z,100650.14
2019-04-26T11:10:55.186Z,100645.02
2019-04-26T11:13:23.585Z,100653.13
2019-04-26T11:15:52.080Z,100650.12
2019-04-26T11:18:27.363Z,100654.39
2019-04-26T11:20:50.735Z,100658.66
2019-04-26T11:23:19.140Z,100652.69
2019-04-26T11:25:47.665Z,100651.39
2019-04-26T11:28:17.205Z,100641.11
2019-04-26T11:30:47.977Z,100642.39
2019-04-26T11:33:16.448Z,100630.83
2019-04-26T11:35:44.936Z,100623.53
2019-04-26T11:38:13.348Z,100626.94
2019-04-26T11:40:44.401Z,100625.59
2019-04-26T11:43:11.969Z,100625.59
2019-04-26T11:45:40.385Z,100624.78
2019-04-26T11:48:08.809Z,100623.45
2019-04-26T11:50:37.284Z,100635.83
2019-04-26T11:53:06.219Z,100647.39
2019-04-26T11:55:35.918Z,100643.56
2019-04-26T11:58:04.377Z,100645.69
2019-04-26T12:00:43.360Z,100647.80
2019-04-26T12:03:11.849Z,100653.45
2019-04-26T12:05:57.718Z,100644.86
2019-04-26T12:08:27.757Z,100651.27
2019-04-26T12:10:56.256Z,100616.52
2019-04-26T12:13:25.205Z,100636.01
2019-04-26T12:15:54.966Z,100638.89
2019-04-26T12:18:24.031Z,100629.66
2019-04-26T12:20:52.369Z,100623.45
2019-04-26T12:23:21.822Z,100625.46
2019-04-26T12:25:50.279Z,100630.75
2019-04-26T12:28:18.692Z,100633.98
2019-04-26T12:30:47.102Z,100633.01
2019-04-26T12:33:15.521Z,100633.95
2019-04-26T12:35:43.991Z,100630.89
2019-04-26T12:38:12.396Z,100628.15
2019-04-26T12:40:42.335Z,100622.89
2019-04-26T12:43:10.975Z,100626.77
2019-04-26T12:45:47.348Z,100623.48
2019-04-26T12:48:25.011Z,100617.13
2019-04-26T12:50:53.474Z,100617.33
2019-04-26T12:53:21.885Z,100618.77
2019-04-26T12:55:53.650Z,100619.30
2019-04-26T12:58:20.452Z,100625.72
2019-04-26T13:00:54.047Z,100628.98
2019-04-26T13:03:20.382Z,100634.41
2019-04-26T13:05:57.472Z,100633.69
2019-04-26T13:08:19.472Z,100647.17
2019-04-26T13:11:08.038Z,100644.66
2019-04-26T13:13:55.208Z,100638.43
2019-04-26T13:16:31.113Z,100640.10
2019-04-26T13:18:59.520Z,100644.60
2019-04-26T13:21:27.932Z,100644.84
2019-04-26T13:23:56.338Z,100641.52
2019-04-26T13:26:24.789Z,100647.44
2019-04-26T13:28:57.021Z,100654.82
2019-04-26T13:31:23.311Z,100653.69
2019-04-26T13:33:51.720Z,100662.81
2019-04-26T13:36:20.149Z,100659.83
2019-04-26T13:38:48.573Z,100659.23
2019-04-26T13:41:17.079Z,100665.22
2019-04-26T13:43:45.474Z,100665.13
2019-04-26T13:46:21.815Z,100650.16
2019-04-26T13:48:51.926Z,100658.77
2019-04-26T13:51:30.903Z,100657.29
2019-04-26T13:53:59.369Z,100657.91
2019-04-26T13:56:27.879Z,100657.10
2019-04-26T13:58:58.203Z,100652.94
2019-04-26T14:01:26.605Z,100647.75
2019-04-26T14:03:55.084Z,100646.84
2019-04-26T14:06:23.567Z,100655.02
2019-04-26T14:08:53.931Z,100648.99
2019-04-26T14:11:28.149Z,100655.36
2019-04-26T14:13:55.529Z,100653.66
2019-04-26T14:16:22.827Z,100655.09
2019-04-26T14:18:51.272Z,100657.52
2019-04-26T14:21:19.679Z,100661.89
2019-04-26T14:23:58.679Z,100659.36
2019-04-26T14:26:28.789Z,100659.31
2019-04-26T14:28:58.204Z,100657.45
2019-04-26T14:31:27.515Z,100647.75
2019-04-26T14:33:55.987Z,100646.67
2019-04-26T14:36:26.785Z,100646.91
2019-04-26T14:39:05.354Z,100653.80
2019-04-26T14:41:24.871Z,100649.94
2019-04-26T14:43:56.727Z,100643.73
2019-04-26T14:46:23.630Z,100655.72
2019-04-26T14:49:02.765Z,100652.19
2019-04-26T14:51:27.215Z,100651.48
2019-04-26T14:53:55.651Z,100645.56
2019-04-26T14:56:24.661Z,100644.13
2019-04-26T14:58:54.274Z,100642.39
2019-04-26T15:01:42.147Z,100645.95
2019-04-26T15:04:29.203Z,100643.09
2019-04-26T15:06:59.701Z,100641.34
2019-04-26T15:09:33.281Z,100638.72
2019-04-26T15:12:01.241Z,100632.92
2019-04-26T15:14:28.559Z,100623.91
2019-04-26T15:16:57.026Z,100626.09
2019-04-26T15:19:25.509Z,100629.21
2019-04-26T15:21:53.891Z,100629.87
2019-04-26T15:24:22.711Z,100630.55
2019-04-26T15:26:51.214Z,100633.96
2019-04-26T15:29:21.269Z,100624.97
2019-04-26T15:31:53.747Z,100630.89
2019-04-26T15:34:23.633Z,100624.25
2019-04-26T15:36:50.240Z,100623.34
2019-04-26T15:39:23.093Z,100615.81
2019-04-26T15:42:04.164Z,100618.30
2019-04-26T15:44:36.877Z,100613.40
2019-04-26T15:47:13.363Z,100616.42
2019-04-26T15:49:46.540Z,100616.06
2019-04-26T15:52:15.098Z,100616.52
2019-04-26T15:54:43.517Z,100611.55
2019-04-26T15:57:12.418Z,100613.25
2019-04-26T15:59:42.901Z,100607.25
2019-04-26T16:02:12.443Z,100612.55
2019-04-26T16:04:42.428Z,100618.59
2019-04-26T16:07:16.723Z,100619.36
2019-04-26T16:09:43.037Z,100621.56
2019-04-26T16:12:13.440Z,100617.48
2019-04-26T16:14:42.282Z,100621.95
2019-04-26T16:17:12.351Z,100631.08
2019-04-26T16:19:40.926Z,100633.78
2019-04-26T16:22:09.339Z,100628.62
2019-04-26T16:24:37.750Z,100634.41
2019-04-26T16:27:06.237Z,100626.17
2019-04-26T16:29:36.325Z,100623.82
2019-04-26T16:32:09.491Z,100623.80
2019-04-26T16:34:47.561Z,100624.26
2019-04-26T16:37:16.518Z,100624.75
2019-04-26T16:39:46.041Z,100627.73
2019-04-26T16:42:13.948Z,100626.92
2019-04-26T16:44:45.035Z,100631.76
2019-04-26T16:47:13.302Z,100625.78
2019-04-26T16:49:44.166Z,100630.95
2019-04-26T16:52:13.978Z,100617.66
2019-04-26T16:54:42.504Z,100625.88
2019-04-26T16:57:12.317Z,100634.05
2019-04-26T16:59:47.422Z,100640.97
2019-04-26T17:02:13.386Z,100634.97
2019-04-26T17:04:43.405Z,100635.07
2019-04-26T17:07:13.397Z,100628.28
2019-04-26T17:09:55.860Z,100635.20
2019-04-26T17:12:14.891Z,100630.77
2019-04-26T17:14:47.784Z,100641.83
2019-04-26T17:17:14.057Z,100645.60
2019-04-26T17:19:43.266Z,100647.84
2019-04-26T17:22:42.550Z,100647.12
2019-04-26T17:25:16.907Z,100652.46
2019-04-26T17:27:47.191Z,100652.66
2019-04-26T17:30:17.520Z,100651.89
2019-04-26T17:32:47.581Z,100658.41
2019-04-26T17:35:16.135Z,100651.63
2019-04-26T17:37:44.646Z,100656.45
2019-04-26T17:40:13.175Z,100658.61
2019-04-26T17:42:41.586Z,100656.83
2019-04-26T17:45:10.887Z,100657.72
2019-04-26T17:47:41.834Z,100654.78
2019-04-26T17:50:11.006Z,100659.11
2019-04-26T17:52:40.890Z,100651.89
2019-04-26T17:55:11.821Z,100646.75
2019-04-26T17:57:43.523Z,100651.45
2019-04-26T18:00:15.383Z,100654.45
2019-04-26T18:02:47.811Z,100654.86
2019-04-26T18:05:12.996Z,100656.20
2019-04-26T18:07:50.231Z,100658.81
2019-04-26T18:10:11.984Z,100651.55
2019-04-26T18:12:41.379Z,100653.26
2019-04-26T18:15:12.529Z,100654.55
2019-04-26T18:17:41.952Z,100655.02
2019-04-26T18:20:23.442Z,100649.89
2019-04-26T18:23:03.503Z,100649.09
2019-04-26T18:25:32.644Z,100649.58
2019-04-26T18:28:01.041Z,100653.09
2019-04-26T18:30:29.541Z,100657.86
2019-04-26T18:32:58.023Z,100662.61
2019-04-26T18:35:26.494Z,100658.34
2019-04-26T18:37:54.956Z,100665.67
2019-04-26T18:40:23.358Z,100666.56
2019-04-26T18:42:53.099Z,100669.59
2019-04-26T18:45:28.739Z,100673.05
2019-04-26T18:47:56.318Z,100684.71
2019-04-26T18:50:23.748Z,100682.20
2019-04-26T18:52:56.531Z,100687.77
2019-04-26T18:55:29.249Z,100696.35
2019-04-26T18:58:01.496Z,100702.00
2019-04-26T19:00:29.059Z,100707.19
2019-04-26T19:02:59.940Z,100705.55
2019-04-26T19:05:30.073Z,100705.13
2019-04-26T19:07:59.714Z,100712.42
2019-04-26T19:10:29.317Z,100711.16
2019-04-26T19:13:00.037Z,100724.45
2019-04-26T19:15:41.766Z,100721.91
2019-04-26T19:18:14.174Z,100723.23
2019-04-26T19:21:03.080Z,100731.86
2019-04-26T19:23:32.102Z,100729.35
2019-04-26T19:26:01.807Z,100725.93
2019-04-26T19:28:30.323Z,100728.08
2019-04-26T19:30:58.754Z,100726.83
2019-04-26T19:33:27.148Z,100733.71
2019-04-26T19:35:55.568Z,100700.27
2019-04-26T19:38:23.966Z,100742.28
2019-04-26T19:40:52.394Z,100740.98
2019-04-26T19:43:30.400Z,100741.00
2019-04-26T19:45:58.321Z,100737.56
2019-04-26T19:48:31.500Z,100740.12
2019-04-26T19:51:19.042Z,100738.84
2019-04-26T19:53:53.046Z,100748.68
2019-04-26T19:56:24.605Z,100750.40
2019-04-26T19:58:57.400Z,100758.53
2019-04-26T20:01:24.827Z,100749.08
2019-04-26T20:03:55.318Z,100750.80
2019-04-26T20:06:22.940Z,100752.50
2019-04-26T20:08:51.957Z,100746.91
2019-04-26T20:11:20.661Z,100743.47
2019-04-26T20:13:51.767Z,100743.00
2019-04-26T20:16:19.179Z,100745.56
2019-04-26T20:18:47.610Z,100742.55
2019-04-26T20:21:16.098Z,100743.38
2019-04-26T20:23:47.358Z,100748.13
2019-04-26T20:26:14.746Z,100739.95
2019-04-26T20:28:43.151Z,100740.30
2019-04-26T20:31:19.423Z,100738.58
2019-04-26T20:33:47.959Z,100735.48
2019-04-26T20:36:16.395Z,100735.48
2019-04-26T20:38:47.405Z,100734.59
2019-04-26T20:41:15.245Z,100729.38
2019-04-26T20:43:47.000Z,100732.72
2019-04-26T20:46:15.467Z,100731.49
2019-04-26T20:48:44.511Z,100735.34
2019-04-26T20:51:12.936Z,100733.11
2019-04-26T20:53:43.706Z,100737.84
2019-04-26T20:56:16.699Z,100738.34
2019-04-26T20:58:43.132Z,100741.71
2019-04-26T21:01:14.124Z,100739.55
2019-04-26T21:03:46.032Z,100736.88
2019-04-26T21:06:12.869Z,100738.54
2019-04-26T21:08:42.341Z,100736.41
2019-04-26T21:11:13.469Z,100728.60
2019-04-26T21:13:41.596Z,100731.27
2019-04-26T21:16:13.240Z,100734.26
2019-04-26T21:18:43.568Z,100731.31
2019-04-26T21:21:11.884Z,100732.57
2019-04-26T21:23:42.271Z,100731.27
2019-04-26T21:26:16.315Z,100727.87
2019-04-26T21:28:44.696Z,100726.59
2019-04-26T21:31:20.810Z,100727.86
2019-04-26T21:33:50.845Z,100727.44
2019-04-26T21:36:27.001Z,100730.73
2019-04-26T21:39:13.791Z,100736.73
2019-04-26T21:41:46.759Z,100759.34
2019-04-26T21:44:15.808Z,100762.94
2019-04-26T21:46:44.424Z,100789.61
2019-04-26T21:49:17.301Z,100792.78
2019-04-26T21:51:44.642Z,100788.66
2019-04-26T21:54:14.445Z,100776.43
2019-04-26T21:56:48.588Z,100778.31
2019-04-26T21:59:13.880Z,100770.66
2019-04-26T22:01:43.484Z,100775.89
2019-04-26T22:04:13.281Z,100772.54
2019-04-26T22:06:41.919Z,100778.12
2019-04-26T22:09:36.617Z,100772.59
2019-04-26T22:12:03.686Z,100767.45
2019-04-26T22:14:36.342Z,100760.18
2019-04-26T22:17:24.346Z,100752.91
2019-04-26T22:20:15.641Z,100749.05
2019-04-26T22:22:58.816Z,100748.20
2019-04-26T22:25:28.969Z,100745.65
2019-04-26T22:28:00.252Z,100746.08
2019-04-26T22:30:38.720Z,100748.20
2019-04-26T22:33:07.183Z,100739.24
2019-04-26T22:35:35.787Z,100734.59
2019-04-26T22:38:04.267Z,100732.88
2019-04-26T22:40:33.540Z,100728.60
2019-04-26T22:43:10.808Z,100729.45
2019-04-26T22:45:45.496Z,100726.48
2019-04-26T22:48:23.343Z,100719.21
2019-04-26T22:50:53.692Z,100718.36
2019-04-26T22:53:21.542Z,100722.20
2019-04-26T22:55:49.874Z,100726.92
2019-04-26T22:58:20.573Z,100726.06
2019-04-26T23:00:48.674Z,100731.63
2019-04-26T23:03:17.220Z,100724.77
2019-04-26T23:05:45.638Z,100720.49
2019-04-26T23:08:14.228Z,100724.77
2019-04-26T23:10:44.349Z,100724.77
2019-04-26T23:13:20.303Z,100727.28
2019-04-26T23:15:52.852Z,100725.13
2019-04-26T23:18:25.987Z,100721.33
2019-04-26T23:20:58.806Z,100719.58
2019-04-26T23:23:27.527Z,100718.34
2019-04-26T23:25:55.952Z,100716.64
2019-04-26T23:28:27.630Z,100722.63
2019-04-26T23:30:55.660Z,100721.72
2019-04-26T23:33:24.072Z,100723.89
2019-04-26T23:35:53.011Z,100721.27
2019-04-26T23:38:23.367Z,100716.57
2019-04-26T23:40:51.753Z,100718.27
2019-04-26T23:43:22.512Z,100716.55
2019-04-26T23:45:50.360Z,100717.83
2019-04-26T23:48:18.910Z,100714.83
2019-04-26T23:50:47.262Z,100720.75
2019-04-26T23:53:15.671Z,100718.59
2019-04-26T23:55:45.344Z,100718.14
2019-04-26T23:58:14.015Z,100721.98
